Time;durP1;ratioP1;P1;durP2;ratioP2;P2;SDS_P1;SDS_P2;PMS_P1;PMS_P2;Temp;Humidity;BMP_temperature;BMP_pressure;BME280_temperature;BME280_humidity;BME280_pressure;Samples;Min_cycle;Max_cycle;Signal;HPM_P1;HPM_P2
2022/01/03 00:01:20;;;;;;;72.63;12.93;;;7.60;99.90;;;;;;5035686;28;20076;-71
2022/01/03 00:03:47;;;;;;;64.93;11.77;;;7.60;99.90;;;;;;5035991;28;20028;-71
2022/01/03 00:06:12;;;;;;;69.63;13.63;;;7.60;99.90;;;;;;5036050;28;20036;-71
2022/01/03 00:08:42;;;;;;;82.10;14.55;;;7.60;99.90;;;;;;5036048;28;20385;-71
2022/01/03 00:11:11;;;;;;;64.00;12.95;;;7.60;99.90;;;;;;5036249;28;20470;-72
2022/01/03 00:13:40;;;;;;;57.60;11.68;;;7.70;99.90;;;;;;5036016;28;20404;-71
2022/01/03 00:16:05;;;;;;;72.55;14.02;;;7.70;99.90;;;;;;5098214;23;20049;-73
2022/01/03 00:18:31;;;;;;;82.82;14.35;;;7.70;99.90;;;;;;4996642;28;20022;-73
2022/01/03 00:20:59;;;;;;;73.10;14.10;;;7.80;99.90;;;;;;4996446;28;20112;-72
2022/01/03 00:23:27;;;;;;;87.20;14.25;;;7.70;99.90;;;;;;4996317;28;20036;-73
2022/01/03 00:25:59;;;;;;;89.70;14.77;;;7.80;99.90;;;;;;4996372;28;20019;-72
2022/01/03 00:28:26;;;;;;;76.65;15.55;;;7.80;99.90;;;;;;4995902;28;20081;-73
2022/01/03 00:30:57;;;;;;;76.60;16.40;;;7.80;99.90;;;;;;4996259;28;20026;-73
2022/01/03 00:33:24;;;;;;;64.03;15.30;;;7.80;99.90;;;;;;4996454;28;20038;-73
2022/01/03 00:36:01;;;;;;;89.20;16.70;;;7.90;99.90;;;;;;4994885;28;20026;-73
2022/01/03 00:38:29;;;;;;;61.75;14.93;;;7.80;99.90;;;;;;4996265;28;20085;-72
2022/01/03 00:40:55;;;;;;;69.60;16.08;;;7.90;99.90;;;;;;4995543;28;20029;-73
2022/01/03 00:43:21;;;;;;;74.55;15.77;;;7.90;99.90;;;;;;4995982;28;20022;-72
2022/01/03 00:45:50;;;;;;;84.13;15.27;;;7.80;99.90;;;;;;4994675;28;20379;-73
2022/01/03 00:48:15;;;;;;;62.75;14.02;;;7.80;99.90;;;;;;4995920;28;20166;-72
2022/01/03 00:50:41;;;;;;;60.28;13.15;;;7.80;99.90;;;;;;4995379;28;20522;-72
2022/01/03 00:53:07;;;;;;;69.30;13.40;;;7.80;99.90;;;;;;4996129;28;20478;-73
2022/01/03 00:55:33;;;;;;;67.78;13.15;;;7.80;99.90;;;;;;4995786;28;20019;-73
2022/01/03 00:58:05;;;;;;;67.13;15.05;;;7.80;99.90;;;;;;4995752;28;20081;-72
2022/01/03 01:00:36;;;;;;;87.90;14.43;;;7.80;99.90;;;;;;4996079;28;20386;-72
2022/01/03 01:03:10;;;;;;;79.05;13.73;;;7.80;99.90;;;;;;4995878;28;20021;-72
2022/01/03 01:05:39;;;;;;;70.75;15.30;;;7.80;99.90;;;;;;4995136;28;20080;-72
2022/01/03 01:08:05;;;;;;;63.78;11.48;;;7.80;99.90;;;;;;4994737;28;20098;-72
2022/01/03 01:10:33;;;;;;;27.85;6.93;;;7.90;99.90;;;;;;4995583;28;20061;-72
2022/01/03 01:12:59;;;;;;;41.03;7.05;;;7.80;99.90;;;;;;4995084;28;20084;-72
2022/01/03 01:15:26;;;;;;;25.67;5.00;;;7.70;99.90;;;;;;4995427;28;20105;-71
2022/01/03 01:17:56;;;;;;;24.77;4.82;;;7.70;99.90;;;;;;4995926;28;20042;-71
2022/01/03 01:20:23;;;;;;;28.23;4.05;;;7.70;99.90;;;;;;4995369;28;20022;-72
2022/01/03 01:22:49;;;;;;;28.88;4.25;;;7.70;99.90;;;;;;4995579;28;20033;-72
2022/01/03 01:27:52;;;;;;;27.73;4.45;;;7.60;99.90;;;;;;4995514;28;20030;-72
2022/01/03 01:30:24;;;;;;;31.60;4.18;;;7.60;99.90;;;;;;4993894;28;20104;-72
2022/01/03 01:33:11;;;;;;;44.63;6.90;;;7.50;99.90;;;;;;4994698;28;20520;-72
2022/01/03 01:35:50;;;;;;;37.38;3.60;;;7.40;99.90;;;;;;4994668;28;20026;-72
2022/01/03 01:38:19;;;;;;;37.45;3.25;;;7.40;99.90;;;;;;4995081;28;20015;-72
2022/01/03 01:40:48;;;;;;;38.53;4.53;;;7.40;99.90;;;;;;4994935;28;20022;-72
2022/01/03 01:43:19;;;;;;;45.97;4.82;;;7.40;99.90;;;;;;4993569;28;20023;-72
2022/01/03 01:45:47;;;;;;;35.35;4.50;;;7.50;99.90;;;;;;4995408;28;20019;-72
2022/01/03 01:48:15;;;;;;;53.40;5.53;;;7.50;99.90;;;;;;4994316;28;20391;-72
2022/01/03 01:50:41;;;;;;;21.08;3.75;;;7.50;99.90;;;;;;4994841;28;20093;-72
2022/01/03 01:53:08;;;;;;;45.20;5.88;;;7.50;99.90;;;;;;4994804;28;20494;-72
2022/01/03 01:55:39;;;;;;;36.55;5.50;;;7.50;99.90;;;;;;4994618;28;20033;-72
2022/01/03 01:58:10;;;;;;;47.85;4.63;;;7.60;99.90;;;;;;4994866;28;20022;-72
2022/01/03 02:00:36;;;;;;;62.95;5.00;;;7.60;99.90;;;;;;4994601;28;20034;-72
2022/01/03 02:03:06;;;;;;;53.03;5.70;;;7.50;99.90;;;;;;4994029;28;20466;-72
2022/01/03 02:05:50;;;;;;;32.63;3.40;;;7.50;99.90;;;;;;4994489;28;20093;-72
2022/01/03 02:08:22;;;;;;;41.50;4.57;;;7.50;99.90;;;;;;4994745;28;20062;-72
2022/01/03 02:11:11;;;;;;;45.28;4.05;;;7.50;99.90;;;;;;4994461;28;20026;-72
2022/01/03 02:13:38;;;;;;;46.10;5.68;;;7.50;99.90;;;;;;4993893;28;20041;-72
2022/01/03 02:16:04;;;;;;;32.55;3.20;;;7.50;99.90;;;;;;4994201;28;20042;-72
2022/01/03 02:18:31;;;;;;;38.05;4.55;;;7.40;99.90;;;;;;4994245;28;20478;-72
2022/01/03 02:20:57;;;;;;;36.05;3.47;;;7.40;99.90;;;;;;4993820;28;20038;-72
2022/01/03 02:23:23;;;;;;;30.98;3.42;;;7.40;99.90;;;;;;4994333;28;20030;-72
2022/01/03 02:25:49;;;;;;;31.10;3.53;;;7.40;99.90;;;;;;4994115;28;20118;-72
2022/01/03 02:28:20;;;;;;;48.53;4.63;;;7.40;99.90;;;;;;4992897;28;20113;-72
2022/01/03 02:30:46;;;;;;;45.00;5.22;;;7.40;99.90;;;;;;4994463;28;20529;-72
2022/01/03 02:33:11;;;;;;;35.78;4.00;;;7.40;99.90;;;;;;4994255;28;20069;-72
2022/01/03 02:35:39;;;;;;;35.67;4.47;;;7.40;99.90;;;;;;4993542;28;20026;-72
2022/01/03 02:38:04;;;;;;;31.58;3.75;;;7.40;99.90;;;;;;4994009;28;20445;-72
2022/01/03 02:40:31;;;;;;;36.45;4.28;;;7.50;99.90;;;;;;4994183;28;20066;-72
2022/01/03 02:42:57;;;;;;;40.05;4.47;;;7.40;99.90;;;;;;4993882;28;20114;-72
2022/01/03 02:45:24;;;;;;;41.83;5.38;;;7.50;99.90;;;;;;4993835;28;20118;-72
2022/01/03 02:47:54;;;;;;;40.50;4.70;;;7.50;99.90;;;;;;4993415;28;20493;-72
2022/01/03 02:50:21;;;;;;;43.25;4.43;;;7.50;99.90;;;;;;4993963;28;20109;-72
2022/01/03 02:52:47;;;;;;;33.88;3.63;;;7.50;99.90;;;;;;4994114;28;20019;-72
2022/01/03 02:55:14;;;;;;;46.70;5.70;;;7.50;99.90;;;;;;4994192;28;20023;-73
2022/01/03 02:57:42;;;;;;;36.90;5.32;;;7.60;99.90;;;;;;4993341;28;20030;-72
2022/01/03 03:00:12;;;;;;;44.08;6.13;;;7.60;99.90;;;;;;4993758;28;20092;-73
2022/01/03 03:02:37;;;;;;;42.50;5.63;;;7.60;99.90;;;;;;4993754;28;20030;-72
2022/01/03 03:05:06;;;;;;;41.50;4.85;;;7.60;99.90;;;;;;4993551;28;20037;-72
2022/01/03 03:07:32;;;;;;;45.50;4.00;;;7.60;99.90;;;;;;4993195;28;20026;-72
2022/01/03 03:10:00;;;;;;;51.08;5.25;;;7.60;99.90;;;;;;4993663;28;20049;-72
2022/01/03 03:12:26;;;;;;;54.10;5.15;;;7.60;99.90;;;;;;4992446;28;20389;-72
2022/01/03 03:14:52;;;;;;;39.90;4.55;;;7.60;99.90;;;;;;4993675;28;20041;-72
2022/01/03 03:17:19;;;;;;;47.97;6.55;;;7.60;99.90;;;;;;4993686;28;20120;-72
2022/01/03 03:20:02;;;;;;;47.05;5.85;;;7.60;99.90;;;;;;4993124;28;20022;-72
2022/01/03 03:22:30;;;;;;;47.25;5.13;;;7.60;99.90;;;;;;4993832;28;20445;-72
2022/01/03 03:25:06;;;;;;;53.72;6.60;;;7.60;99.90;;;;;;4993443;28;20027;-72
2022/01/03 03:27:32;;;;;;;56.33;5.07;;;7.60;99.90;;;;;;4993708;28;20106;-72
2022/01/03 03:29:58;;;;;;;70.20;6.65;;;7.70;99.90;;;;;;4992854;28;20398;-72
2022/01/03 03:32:26;;;;;;;46.78;5.63;;;7.60;99.90;;;;;;4997525;28;20030;-72
2022/01/03 03:34:53;;;;;;;42.08;7.63;;;7.60;99.90;;;;;;4997271;28;20026;-73
2022/01/03 03:37:19;;;;;;;52.95;6.65;;;7.60;99.90;;;;;;4997245;28;20498;-73
2022/01/03 03:39:46;;;;;;;49.70;5.72;;;7.60;99.90;;;;;;4996690;28;20065;-73
2022/01/03 03:42:12;;;;;;;61.28;7.70;;;7.60;99.90;;;;;;4997412;28;20089;-73
2022/01/03 03:44:38;;;;;;;63.42;6.13;;;7.60;99.90;;;;;;4997273;28;20031;-72
2022/01/03 03:47:06;;;;;;;57.05;7.05;;;7.60;99.90;;;;;;4996608;28;20113;-73
2022/01/03 03:49:32;;;;;;;78.18;8.50;;;7.60;99.90;;;;;;4997336;28;20050;-72
2022/01/03 03:52:01;;;;;;;87.53;8.95;;;7.60;99.90;;;;;;4997046;28;20038;-72
2022/01/03 03:54:27;;;;;;;66.75;7.05;;;7.60;99.90;;;;;;4996975;28;20026;-73
2022/01/03 03:56:52;;;;;;;58.00;7.32;;;7.60;99.90;;;;;;4995164;28;20026;-73
2022/01/03 03:59:18;;;;;;;78.68;9.48;;;7.60;99.90;;;;;;4997120;28;20027;-73
2022/01/03 04:01:44;;;;;;;69.28;6.95;;;7.60;99.90;;;;;;4995830;28;20026;-73
2022/01/03 04:04:09;;;;;;;77.72;7.80;;;7.60;99.90;;;;;;4996722;28;20034;-72
2022/01/03 04:06:35;;;;;;;83.80;8.57;;;7.60;99.90;;;;;;4996854;28;20101;-73
2022/01/03 04:09:01;;;;;;;75.03;8.10;;;7.60;99.90;;;;;;4996818;28;20190;-73
2022/01/03 04:11:26;;;;;;;63.13;7.63;;;7.60;99.90;;;;;;4995882;28;20041;-72
2022/01/03 04:13:52;;;;;;;63.58;8.07;;;7.60;99.90;;;;;;4997467;28;20030;-72
2022/01/03 04:16:17;;;;;;;70.53;10.00;;;7.60;99.90;;;;;;4997013;28;20406;-73
2022/01/03 04:18:43;;;;;;;63.95;9.50;;;7.50;99.90;;;;;;4996613;28;20027;-73
2022/01/03 04:21:09;;;;;;;66.82;7.28;;;7.60;99.90;;;;;;4995660;28;20026;-73
2022/01/03 04:23:35;;;;;;;63.83;7.90;;;7.60;99.90;;;;;;4996333;28;20093;-73
2022/01/03 04:26:00;;;;;;;80.28;9.05;;;7.70;99.90;;;;;;4995102;28;20018;-73
2022/01/03 04:28:26;;;;;;;80.55;9.70;;;7.70;99.90;;;;;;4996431;28;20030;-73
2022/01/03 04:30:51;;;;;;;61.15;8.57;;;7.70;99.90;;;;;;4995758;28;20105;-73
2022/01/03 04:33:17;;;;;;;66.47;9.35;;;7.70;99.90;;;;;;4995046;28;20112;-73
2022/01/03 04:35:43;;;;;;;90.75;8.73;;;7.70;99.90;;;;;;4996287;28;20022;-73
2022/01/03 04:38:10;;;;;;;79.78;9.82;;;7.80;99.90;;;;;;4996422;28;20030;-73
2022/01/03 04:40:36;;;;;;;68.82;8.52;;;7.80;99.90;;;;;;4994282;28;20023;-73
2022/01/03 04:43:01;;;;;;;84.55;9.43;;;7.70;99.90;;;;;;4994882;28;20022;-73
2022/01/03 04:45:27;;;;;;;74.57;8.60;;;7.70;99.90;;;;;;4995860;28;20038;-73
2022/01/03 04:47:52;;;;;;;99.75;9.63;;;7.80;99.90;;;;;;4995951;28;20077;-73
2022/01/03 04:50:18;;;;;;;94.13;11.20;;;7.70;99.90;;;;;;4994653;28;20026;-73
2022/01/03 04:52:43;;;;;;;102.20;11.90;;;7.80;99.90;;;;;;4995389;28;20018;-73
2022/01/03 04:55:09;;;;;;;96.22;8.73;;;7.80;99.90;;;;;;4996081;28;20026;-73
2022/01/03 04:57:35;;;;;;;80.00;11.27;;;7.80;99.90;;;;;;4995855;28;20030;-73
2022/01/03 05:00:00;;;;;;;81.60;10.80;;;7.90;99.90;;;;;;4996008;28;20034;-73
2022/01/03 05:02:26;;;;;;;90.95;12.10;;;7.90;99.90;;;;;;4995689;28;20030;-73
2022/01/03 05:04:52;;;;;;;100.45;12.68;;;7.90;99.90;;;;;;4994231;28;20027;-73
2022/01/03 05:07:17;;;;;;;67.53;8.35;;;7.90;99.90;;;;;;4995529;28;20041;-73
2022/01/03 05:09:43;;;;;;;92.63;10.77;;;7.90;99.90;;;;;;4995535;28;20026;-73
2022/01/03 05:12:10;;;;;;;89.88;11.88;;;7.90;99.90;;;;;;4995791;28;20428;-73
2022/01/03 05:14:36;;;;;;;87.07;10.15;;;7.90;99.90;;;;;;4996003;28;20028;-73
2022/01/03 05:17:02;;;;;;;91.05;10.52;;;7.90;99.90;;;;;;4995276;28;20113;-73
2022/01/03 05:19:27;;;;;;;83.05;10.43;;;7.90;99.90;;;;;;4993580;28;20031;-73
2022/01/03 05:21:53;;;;;;;85.78;10.77;;;7.90;99.90;;;;;;4993758;28;20037;-73
2022/01/03 05:24:19;;;;;;;66.88;9.95;;;7.90;99.90;;;;;;4995043;28;20032;-73
2022/01/03 05:26:44;;;;;;;87.55;12.45;;;7.90;99.90;;;;;;4995198;28;20368;-73
2022/01/03 05:29:10;;;;;;;74.72;10.05;;;7.90;99.90;;;;;;4995172;28;20030;-73
2022/01/03 05:31:36;;;;;;;106.68;11.55;;;7.90;99.90;;;;;;4994601;28;20027;-73
2022/01/03 05:34:02;;;;;;;91.72;10.48;;;7.90;99.90;;;;;;4995082;28;20057;-73
2022/01/03 05:36:28;;;;;;;90.07;11.23;;;7.90;99.90;;;;;;4993718;28;20040;-73
2022/01/03 05:38:53;;;;;;;114.95;12.32;;;7.90;99.90;;;;;;4993779;28;20031;-73
2022/01/03 05:41:19;;;;;;;112.25;13.57;;;7.90;99.90;;;;;;4994954;28;20033;-73
2022/01/03 05:43:45;;;;;;;67.07;10.80;;;7.90;99.90;;;;;;4994337;28;20026;-73
2022/01/03 05:46:12;;;;;;;101.00;12.18;;;7.90;99.90;;;;;;4994767;28;20153;-73
2022/01/03 05:48:37;;;;;;;91.70;11.88;;;7.90;99.90;;;;;;4994882;28;20027;-73
2022/01/03 05:51:03;;;;;;;101.38;12.48;;;7.90;99.90;;;;;;4994776;28;20029;-73
2022/01/03 05:53:32;;;;;;;83.72;12.32;;;8.00;99.90;;;;;;4993128;28;20028;-73
2022/01/03 05:55:58;;;;;;;91.28;10.98;;;8.00;99.90;;;;;;4994613;28;20049;-73
2022/01/03 05:58:24;;;;;;;90.35;11.63;;;8.00;99.90;;;;;;4994449;28;20034;-73
2022/01/03 06:00:49;;;;;;;137.95;13.00;;;8.00;99.90;;;;;;4994614;28;20390;-73
2022/01/03 06:03:19;;;;;;;92.63;12.00;;;8.00;99.90;;;;;;4994566;28;20430;-73
2022/01/03 06:08:22;;;;;;;106.53;12.00;;;8.00;99.90;;;;;;4995173;28;20494;-73
2022/01/03 06:10:48;;;;;;;98.80;12.80;;;7.90;99.90;;;;;;4994470;28;20026;-73
2022/01/03 06:13:15;;;;;;;105.30;13.10;;;7.90;99.90;;;;;;4994699;28;20046;-73
2022/01/03 06:15:41;;;;;;;100.70;13.07;;;7.90;99.90;;;;;;4992420;28;20495;-73
2022/01/03 06:18:12;;;;;;;105.05;11.77;;;7.90;99.90;;;;;;4994605;28;20042;-73
2022/01/03 06:20:39;;;;;;;83.32;10.70;;;8.00;99.90;;;;;;4994328;28;20029;-73
2022/01/03 06:23:05;;;;;;;122.20;14.07;;;7.90;99.90;;;;;;4994255;28;20030;-73
2022/01/03 06:25:31;;;;;;;112.15;12.02;;;8.00;99.90;;;;;;4994256;28;20496;-73
2022/01/03 06:27:56;;;;;;;105.75;13.43;;;7.90;99.90;;;;;;4994184;28;20026;-73
2022/01/03 06:30:22;;;;;;;111.38;12.75;;;7.90;99.90;;;;;;4993616;28;20154;-73
2022/01/03 06:32:48;;;;;;;103.15;13.13;;;7.90;99.90;;;;;;4994064;28;20027;-73
2022/01/03 06:35:13;;;;;;;109.35;12.02;;;7.90;99.90;;;;;;4993988;28;20050;-73
2022/01/03 06:37:39;;;;;;;121.00;12.85;;;7.90;99.90;;;;;;4994008;28;20026;-73
2022/01/03 06:40:06;;;;;;;113.95;11.48;;;7.90;99.90;;;;;;4993440;28;20030;-73
2022/01/03 06:42:32;;;;;;;109.90;15.48;;;7.90;99.90;;;;;;4994296;28;20026;-73
2022/01/03 06:44:58;;;;;;;117.68;14.15;;;7.90;99.90;;;;;;4994039;28;20065;-73
2022/01/03 06:47:24;;;;;;;96.65;12.60;;;7.90;99.90;;;;;;4993907;28;20025;-73
2022/01/03 06:49:50;;;;;;;92.05;12.13;;;7.90;99.90;;;;;;4993301;28;20019;-73
2022/01/03 06:52:16;;;;;;;100.28;13.35;;;7.90;99.90;;;;;;4993806;28;20029;-73
2022/01/03 06:54:42;;;;;;;125.60;14.15;;;8.00;99.90;;;;;;4992335;28;20081;-73
2022/01/03 06:57:08;;;;;;;103.78;12.93;;;7.90;99.90;;;;;;4993800;28;20056;-73
2022/01/03 06:59:34;;;;;;;106.05;15.32;;;7.90;99.90;;;;;;4992437;28;20557;-73
2022/01/03 07:01:59;;;;;;;114.28;13.25;;;7.90;99.90;;;;;;4993628;28;20037;-73
2022/01/03 07:04:25;;;;;;;103.07;12.70;;;7.90;99.90;;;;;;4993951;28;20023;-73
2022/01/03 07:06:51;;;;;;;105.07;15.50;;;7.90;99.90;;;;;;4995524;28;20026;-73
2022/01/03 07:09:16;;;;;;;93.47;11.60;;;7.90;99.90;;;;;;4997767;28;20102;-73
2022/01/03 07:11:42;;;;;;;112.45;13.52;;;7.90;99.90;;;;;;4997118;28;20506;-73
2022/01/03 07:19:37;;;;;;;105.30;12.88;;;7.90;99.90;;;;;;4996891;28;20037;-73
2022/01/03 07:22:04;;;;;;;93.80;11.13;;;7.80;99.90;;;;;;4996210;28;20115;-74
2022/01/03 07:24:33;;;;;;;111.47;14.38;;;7.80;99.90;;;;;;4995540;28;20441;-73
2022/01/03 07:27:07;;;;;;;124.28;13.30;;;7.80;99.90;;;;;;4996478;28;20105;-73
2022/01/03 07:29:32;;;;;;;;;;;7.70;99.90;;;;;;4996878;28;20073;-74
2022/01/03 07:31:58;;;;;;;107.45;12.77;;;7.80;99.90;;;;;;4996086;28;20361;-73
2022/01/03 07:34:24;;;;;;;100.65;14.27;;;7.80;99.90;;;;;;4994856;28;20022;-73
2022/01/03 07:36:50;;;;;;;136.48;16.58;;;7.80;99.90;;;;;;4996302;28;20035;-73
2022/01/03 07:39:15;;;;;;;115.25;15.43;;;7.70;99.90;;;;;;4995505;28;20033;-73
2022/01/03 07:41:41;;;;;;;107.47;12.70;;;7.70;99.90;;;;;;4995966;28;20517;-73
2022/01/03 07:44:07;;;;;;;132.25;16.73;;;7.60;99.90;;;;;;4995793;28;20421;-74
2022/01/03 07:46:32;;;;;;;124.43;15.35;;;7.60;99.90;;;;;;4995819;28;20019;-73
2022/01/03 07:48:58;;;;;;;109.10;12.98;;;7.60;99.90;;;;;;4995826;28;20159;-74
2022/01/03 07:51:23;;;;;;;120.82;17.10;;;7.60;99.90;;;;;;4995255;28;20030;-73
2022/01/03 07:53:49;;;;;;;133.70;17.92;;;7.60;99.90;;;;;;4994528;28;20473;-74
2022/01/03 07:56:14;;;;;;;103.63;12.90;;;7.60;99.90;;;;;;4995660;28;20053;-74
2022/01/03 07:58:40;;;;;;;92.03;12.05;;;7.60;99.90;;;;;;4995208;28;20030;-73
2022/01/03 08:01:06;;;;;;;126.38;13.98;;;7.60;99.90;;;;;;4995657;28;20504;-74
2022/01/03 08:03:32;;;;;;;114.68;13.82;;;7.60;99.90;;;;;;4995849;28;20097;-73
2022/01/03 08:05:58;;;;;;;125.82;15.10;;;7.70;99.90;;;;;;4995487;28;20483;-73
2022/01/03 08:08:24;;;;;;;128.07;13.93;;;7.80;99.90;;;;;;4995851;28;20102;-73
2022/01/03 08:10:50;;;;;;;89.40;12.93;;;7.90;99.90;;;;;;4994986;28;20482;-73
2022/01/03 08:13:15;;;;;;;84.07;10.57;;;7.90;99.90;;;;;;4994242;28;20026;-73
2022/01/03 08:15:42;;;;;;;103.57;15.80;;;7.90;99.90;;;;;;4960106;28;1036362;-73
2022/01/03 08:18:08;;;;;;;102.00;12.55;;;7.90;99.90;;;;;;4996591;28;20482;-73
2022/01/03 08:20:35;;;;;;;111.78;13.20;;;8.00;99.90;;;;;;4996772;28;20113;-73
2022/01/03 08:23:00;;;;;;;96.38;11.95;;;8.00;99.90;;;;;;4997032;28;20422;-74
2022/01/03 08:25:26;;;;;;;108.20;12.68;;;8.00;99.90;;;;;;4995834;28;20029;-72
2022/01/03 08:27:52;;;;;;;100.30;12.43;;;8.00;99.90;;;;;;4996346;28;20050;-73
2022/01/03 08:30:17;;;;;;;86.40;13.70;;;8.00;99.90;;;;;;4995955;28;20034;-73
2022/01/03 08:32:43;;;;;;;105.60;13.20;;;8.10;99.90;;;;;;4996304;28;20497;-73
2022/01/03 08:35:10;;;;;;;81.85;11.80;;;8.20;99.90;;;;;;4995628;28;20034;-73
2022/01/03 08:37:36;;;;;;;98.60;11.98;;;8.10;99.90;;;;;;4996808;28;20041;-72
2022/01/03 08:40:04;;;;;;;107.80;12.52;;;8.20;99.90;;;;;;4996178;28;20026;-72
2022/01/03 08:42:34;;;;;;;94.78;11.43;;;8.20;99.90;;;;;;4996083;28;20037;-73
2022/01/03 08:45:01;;;;;;;104.07;11.65;;;8.20;99.90;;;;;;4995951;28;20113;-73
2022/01/03 08:47:27;;;;;;;117.20;15.15;;;8.10;99.90;;;;;;4995518;28;20049;-73
2022/01/03 08:49:53;;;;;;;82.28;10.60;;;8.10;99.90;;;;;;4996212;28;20050;-73
2022/01/03 08:52:19;;;;;;;107.15;12.02;;;8.10;99.90;;;;;;4996181;28;20026;-72
2022/01/03 08:54:44;;;;;;;111.38;12.70;;;8.00;99.90;;;;;;4994543;28;20023;-72
2022/01/03 08:57:10;;;;;;;75.47;10.70;;;8.00;99.90;;;;;;4995295;28;20026;-73
2022/01/03 08:59:35;;;;;;;100.05;15.73;;;8.10;99.90;;;;;;4995784;28;20109;-73
2022/01/03 09:02:01;;;;;;;101.60;13.27;;;8.10;99.90;;;;;;4994489;28;20026;-72
2022/01/03 09:04:27;;;;;;;92.85;11.48;;;8.10;99.90;;;;;;4995593;28;20037;-73
2022/01/03 09:06:52;;;;;;;86.05;12.65;;;8.10;99.90;;;;;;4995021;28;20025;-73
2022/01/03 09:09:19;;;;;;;100.32;15.95;;;8.10;99.90;;;;;;4994369;28;20022;-72
2022/01/03 09:11:44;;;;;;;122.25;15.20;;;8.10;99.90;;;;;;4994370;28;20053;-72
2022/01/03 09:14:10;;;;;;;101.78;12.07;;;8.10;99.90;;;;;;4995516;28;20022;-72
2022/01/03 09:16:36;;;;;;;112.72;14.35;;;8.00;99.90;;;;;;4995335;28;20052;-72
2022/01/03 09:19:02;;;;;;;94.47;13.73;;;8.00;99.90;;;;;;4994860;28;20096;-73
2022/01/03 09:21:28;;;;;;;98.43;14.25;;;8.00;99.90;;;;;;4995410;28;20425;-72
2022/01/03 09:24:15;;;;;;;127.10;14.23;;;8.00;99.90;;;;;;4994032;28;20505;-72
2022/01/03 09:29:23;;;;;;;;;;;8.00;99.90;;;;;;4994445;28;20081;-73
2022/01/03 09:31:49;;;;;;;120.05;14.90;;;8.00;99.90;;;;;;4995150;28;20365;-72
2022/01/03 09:34:14;;;;;;;104.20;13.90;;;8.00;99.90;;;;;;4995167;28;20032;-73
2022/01/03 09:36:40;;;;;;;112.45;13.23;;;8.00;99.90;;;;;;4994970;28;20069;-73
2022/01/03 09:39:07;;;;;;;122.22;16.35;;;8.00;99.90;;;;;;4994979;28;20081;-72
2022/01/03 09:41:33;;;;;;;116.38;14.93;;;8.00;99.90;;;;;;4994907;28;20023;-72
2022/01/03 09:44:08;;;;;;;95.63;13.10;;;8.00;99.90;;;;;;4994387;28;20022;-72
2022/01/03 09:46:42;;;;;;;117.15;17.00;;;8.00;99.90;;;;;;4993674;28;20508;-72
2022/01/03 09:49:10;;;;;;;109.85;15.90;;;8.00;99.90;;;;;;4994928;28;20023;-72
2022/01/03 09:51:36;;;;;;;125.85;14.48;;;8.00;99.90;;;;;;4994784;28;20033;-72
2022/01/03 09:54:08;;;;;;;120.32;15.68;;;8.00;99.90;;;;;;4994319;28;20077;-73
2022/01/03 09:56:36;;;;;;;128.98;16.45;;;8.00;99.90;;;;;;4994771;28;20037;-72
2022/01/03 09:59:03;;;;;;;121.82;15.10;;;8.00;99.90;;;;;;4994664;28;20105;-72
2022/01/03 10:01:30;;;;;;;129.73;13.20;;;8.00;99.90;;;;;;4994618;28;20425;-73
2022/01/03 10:03:56;;;;;;;134.60;16.30;;;8.00;99.90;;;;;;4994470;28;20089;-72
2022/01/03 10:06:24;;;;;;;105.20;13.93;;;8.10;99.90;;;;;;4994238;28;20394;-73
2022/01/03 10:08:49;;;;;;;114.90;15.20;;;8.10;99.90;;;;;;4994485;28;20058;-72
2022/01/03 10:11:15;;;;;;;117.70;15.27;;;8.10;99.90;;;;;;4994434;28;20100;-72
2022/01/03 10:13:41;;;;;;;108.57;14.93;;;8.10;99.90;;;;;;4993955;28;20132;-72
2022/01/03 10:16:08;;;;;;;114.75;15.38;;;8.20;99.90;;;;;;4994253;28;20505;-73
2022/01/03 10:18:33;;;;;;;112.85;13.75;;;8.20;99.90;;;;;;4994373;28;20084;-72
2022/01/03 10:21:03;;;;;;;128.05;16.88;;;8.20;99.90;;;;;;4994811;28;20105;-72
2022/01/03 10:23:29;;;;;;;99.22;14.63;;;8.20;99.90;;;;;;4993771;28;20022;-72
2022/01/03 10:26:14;;;;;;;112.18;15.50;;;8.20;99.90;;;;;;4994419;28;20041;-71
2022/01/03 10:28:39;;;;;;;103.82;14.07;;;8.20;99.90;;;;;;4994378;28;20018;-72
2022/01/03 10:31:17;;;;;;;102.72;15.05;;;8.20;99.90;;;;;;4994461;28;20485;-71
2022/01/03 10:33:43;;;;;;;108.75;14.77;;;8.20;99.90;;;;;;4995273;28;20419;-72
2022/01/03 10:36:29;;;;;;;118.10;15.13;;;8.20;99.90;;;;;;4993460;28;20030;-72
2022/01/03 10:38:55;;;;;;;76.03;12.60;;;8.20;99.90;;;;;;4994365;28;20517;-75
2022/01/03 10:41:23;;;;;;;98.57;14.07;;;8.20;99.90;;;;;;4993007;28;20114;-72
2022/01/03 10:43:57;;;;;;;93.82;13.40;;;8.20;99.90;;;;;;4993945;28;20030;-71
2022/01/03 10:46:25;;;;;;;148.73;18.25;;;8.20;99.90;;;;;;4993910;28;20073;-71
2022/01/03 10:49:13;;;;;;;139.85;17.83;;;8.10;99.90;;;;;;4993433;28;20019;-72
2022/01/03 10:51:40;;;;;;;144.65;16.98;;;8.10;99.90;;;;;;4992684;28;20070;-72
2022/01/03 10:54:12;;;;;;;114.95;16.05;;;8.00;99.90;;;;;;4993867;28;20394;-72
2022/01/03 10:56:47;;;;;;;113.63;15.93;;;8.00;99.90;;;;;;4994099;28;20101;-71
2022/01/03 10:59:15;;;;;;;135.68;16.00;;;8.00;99.90;;;;;;4993462;28;20023;-71
2022/01/03 11:02:04;;;;;;;120.05;14.32;;;8.00;99.90;;;;;;4993704;28;20032;-72
2022/01/03 11:04:52;;;;;;;122.18;16.40;;;7.90;99.90;;;;;;4992367;28;20030;-72
2022/01/03 11:13:19;;;;;;;108.43;14.90;;;8.00;99.90;;;;;;4993728;28;20032;-72
2022/01/03 11:16:05;;;;;;;107.32;17.02;;;8.10;99.90;;;;;;4993103;28;20053;-72
2022/01/03 11:18:36;;;;;;;116.00;16.13;;;8.10;99.90;;;;;;4993894;28;20386;-72
2022/01/03 11:21:21;;;;;;;115.82;14.10;;;8.10;99.90;;;;;;4993571;28;20478;-72
2022/01/03 11:24:09;;;;;;;117.97;14.68;;;8.20;99.90;;;;;;4993802;28;20033;-72
2022/01/03 11:26:40;;;;;;;144.25;16.33;;;8.30;99.90;;;;;;4993176;28;20023;-71
2022/01/03 11:29:06;;;;;;;114.70;14.55;;;8.30;99.90;;;;;;4993657;28;20026;-71
2022/01/03 11:31:33;;;;;;;118.03;15.27;;;8.20;99.90;;;;;;4993512;28;20033;-71
2022/01/03 11:33:59;;;;;;;101.15;12.30;;;8.30;99.90;;;;;;4993623;28;20034;-71
2022/01/03 11:36:26;;;;;;;114.95;13.00;;;8.30;99.90;;;;;;4992872;28;20037;-71
2022/01/03 11:38:55;;;;;;;121.38;14.95;;;8.30;99.90;;;;;;4993444;28;20030;-72
2022/01/03 11:41:21;;;;;;;121.60;13.82;;;8.30;99.90;;;;;;4993472;28;20026;-71
2022/01/03 11:43:48;;;;;;;104.88;14.82;;;8.30;99.90;;;;;;4991487;28;20033;-72
2022/01/03 11:46:14;;;;;;;117.18;13.27;;;8.30;99.90;;;;;;4993654;28;20462;-71
2022/01/03 11:48:39;;;;;;;93.95;13.57;;;8.40;99.90;;;;;;4993489;28;20037;-71
2022/01/03 11:51:10;;;;;;;123.70;13.52;;;8.40;99.90;;;;;;4992073;28;20019;-72
2022/01/03 11:53:41;;;;;;;107.13;16.65;;;8.40;99.90;;;;;;4997068;28;20018;-72
2022/01/03 11:56:12;;;;;;;151.05;16.17;;;8.40;99.90;;;;;;4997043;28;20086;-72
2022/01/03 12:04:29;;;;;;;127.18;13.10;;;8.30;99.90;;;;;;4997284;28;20041;-71
2022/01/03 12:07:21;;;;;;;102.72;13.18;;;8.20;99.90;;;;;;4996795;28;20030;-71
2022/01/03 12:09:47;;;;;;;126.75;15.15;;;8.20;99.90;;;;;;4993074;28;20108;-71
2022/01/03 12:12:33;;;;;;;111.28;15.02;;;8.10;99.90;;;;;;4997070;28;20470;-72
2022/01/03 12:15:03;;;;;;;116.30;13.60;;;8.00;99.90;;;;;;4996567;28;20449;-72
2022/01/03 12:17:44;;;;;;;106.18;12.40;;;8.00;99.90;;;;;;4995366;28;20485;-72
2022/01/03 12:20:10;;;;;;;146.70;15.52;;;8.00;99.90;;;;;;4996623;28;20612;-71
2022/01/03 12:22:50;;;;;;;114.50;14.30;;;7.90;99.90;;;;;;4996511;28;20061;-71
2022/01/03 12:25:31;;;;;;;139.27;14.52;;;7.90;99.90;;;;;;4995745;28;20030;-71
2022/01/03 12:28:03;;;;;;;141.77;16.25;;;7.90;99.90;;;;;;4996414;28;20022;-71
2022/01/03 12:30:36;;;;;;;124.28;17.15;;;7.90;99.90;;;;;;4996655;28;20022;-71
2022/01/03 12:33:07;;;;;;;132.10;14.30;;;7.90;99.90;;;;;;4996415;28;20078;-71
2022/01/03 12:35:35;;;;;;;138.32;14.65;;;7.90;99.90;;;;;;4994385;28;20034;-71
2022/01/03 12:38:09;;;;;;;116.35;15.98;;;7.90;99.90;;;;;;4996248;28;20057;-71
2022/01/03 12:40:45;;;;;;;135.77;15.55;;;7.90;99.90;;;;;;4996785;28;20029;-71
2022/01/03 12:43:12;;;;;;;145.80;18.92;;;7.90;99.90;;;;;;4996430;28;20032;-72
2022/01/03 12:45:43;;;;;;;125.05;14.40;;;7.90;99.90;;;;;;4995990;28;20038;-71
2022/01/03 12:48:11;;;;;;;118.13;14.15;;;7.90;99.90;;;;;;4995564;28;20106;-72
2022/01/03 12:50:36;;;;;;;119.20;14.73;;;7.90;99.90;;;;;;4995969;28;20014;-71
2022/01/03 12:53:03;;;;;;;105.35;13.38;;;7.90;99.90;;;;;;4995960;28;20029;-72
2022/01/03 12:55:38;;;;;;;126.53;16.00;;;7.90;99.90;;;;;;4995848;28;20084;-72
2022/01/03 12:58:18;;;;;;;128.07;15.30;;;8.00;99.90;;;;;;4994062;28;20034;-72
2022/01/03 13:00:58;;;;;;;129.32;14.23;;;7.90;99.90;;;;;;4996085;28;20019;-72
2022/01/03 13:03:32;;;;;;;128.82;16.02;;;7.90;99.90;;;;;;4993509;28;20030;-71
2022/01/03 13:06:15;;;;;;;113.25;15.10;;;7.90;99.90;;;;;;4995446;28;20027;-72